sensor_id;sensor_type;location;lat;lon;timestamp;temperature;humidity
57892;DHT22;43708;48.828;9.166;2023-04-01T00:02:01;20.70;85.10
57892;DHT22;43708;48.828;9.166;2023-04-01T00:04:26;20.70;85.20
57892;DHT22;43708;48.828;9.166;2023-04-01T00:06:52;20.70;85.10
57892;DHT22;43708;48.828;9.166;2023-04-01T00:09:18;20.70;85.20
57892;DHT22;43708;48.828;9.166;2023-04-01T00:11:43;20.70;85.10
57892;DHT22;43708;48.828;9.166;2023-04-01T00:14:11;20.70;85.20
57892;DHT22;43708;48.828;9.166;2023-04-01T00:16:39;20.70;85.10
57892;DHT22;43708;48.828;9.166;2023-04-01T00:19:05;20.70;85.10
57892;DHT22;43708;48.828;9.166;2023-04-01T00:21:31;20.70;85.10
57892;DHT22;43708;48.828;9.166;2023-04-01T00:23:57;20.70;85.10
57892;DHT22;43708;48.828;9.166;2023-04-01T00:26:23;20.70;85.10
57892;DHT22;43708;48.828;9.166;2023-04-01T00:28:50;20.70;85.10
57892;DHT22;43708;48.828;9.166;2023-04-01T00:31:15;20.70;85.10
57892;DHT22;43708;48.828;9.166;2023-04-01T00:33:41;20.70;85.10
57892;DHT22;43708;48.828;9.166;2023-04-01T00:36:14;20.70;85.10
57892;DHT22;43708;48.828;9.166;2023-04-01T00:38:41;20.70;85.10
57892;DHT22;43708;48.828;9.166;2023-04-01T00:41:09;20.60;85.00
57892;DHT22;43708;48.828;9.166;2023-04-01T00:43:40;20.60;85.00
57892;DHT22;43708;48.828;9.166;2023-04-01T00:46:06;20.60;85.00
57892;DHT22;43708;48.828;9.166;2023-04-01T00:48:35;20.60;85.00
57892;DHT22;43708;48.828;9.166;2023-04-01T00:51:05;20.60;85.00
57892;DHT22;43708;48.828;9.166;2023-04-01T00:53:33;20.60;85.10
57892;DHT22;43708;48.828;9.166;2023-04-01T00:56:15;20.60;85.00
57892;DHT22;43708;48.828;9.166;2023-04-01T00:58:46;20.60;85.00
57892;DHT22;43708;48.828;9.166;2023-04-01T01:01:13;20.60;84.90
57892;DHT22;43708;48.828;9.166;2023-04-01T01:03:39;20.60;84.90
57892;DHT22;43708;48.828;9.166;2023-04-01T01:09:07;20.70;84.90
57892;DHT22;43708;48.828;9.166;2023-04-01T01:11:50;20.70;84.80
57892;DHT22;43708;48.828;9.166;2023-04-01T01:14:24;20.70;84.70
57892;DHT22;43708;48.828;9.166;2023-04-01T01:16:56;20.70;84.70
57892;DHT22;43708;48.828;9.166;2023-04-01T01:25:25;20.80;84.60
57892;DHT22;43708;48.828;9.166;2023-04-01T01:30:43;20.80;84.50
57892;DHT22;43708;48.828;9.166;2023-04-01T01:33:39;20.80;84.40
57892;DHT22;43708;48.828;9.166;2023-04-01T01:36:11;20.80;84.40
57892;DHT22;43708;48.828;9.166;2023-04-01T01:38:38;20.80;84.40
57892;DHT22;43708;48.828;9.166;2023-04-01T01:41:05;20.80;84.30
57892;DHT22;43708;48.828;9.166;2023-04-01T01:43:43;20.80;84.30
57892;DHT22;43708;48.828;9.166;2023-04-01T01:46:14;20.80;85.00
57892;DHT22;43708;48.828;9.166;2023-04-01T01:48:42;20.80;84.30
57892;DHT22;43708;48.828;9.166;2023-04-01T01:51:09;20.80;84.30
57892;DHT22;43708;48.828;9.166;2023-04-01T01:53:34;20.80;84.20
57892;DHT22;43708;48.828;9.166;2023-04-01T01:56:00;20.80;84.20
57892;DHT22;43708;48.828;9.166;2023-04-01T01:58:40;20.90;84.30
57892;DHT22;43708;48.828;9.166;2023-04-01T02:01:11;20.80;84.20
57892;DHT22;43708;48.828;9.166;2023-04-01T02:03:39;20.90;84.30
57892;DHT22;43708;48.828;9.166;2023-04-01T02:06:08;20.80;84.20
57892;DHT22;43708;48.828;9.166;2023-04-01T02:08:56;20.80;84.20
57892;DHT22;43708;48.828;9.166;2023-04-01T02:11:46;20.80;84.20
57892;DHT22;43708;48.828;9.166;2023-04-01T02:14:23;20.80;84.20
57892;DHT22;43708;48.828;9.166;2023-04-01T02:16:57;20.80;84.30
57892;DHT22;43708;48.828;9.166;2023-04-01T02:19:43;20.80;84.20
57892;DHT22;43708;48.828;9.166;2023-04-01T02:22:14;20.80;84.20
57892;DHT22;43708;48.828;9.166;2023-04-01T02:24:42;20.80;84.20
57892;DHT22;43708;48.828;9.166;2023-04-01T02:27:09;20.80;84.20
57892;DHT22;43708;48.828;9.166;2023-04-01T02:29:35;20.80;84.20
57892;DHT22;43708;48.828;9.166;2023-04-01T02:32:02;20.80;84.20
57892;DHT22;43708;48.828;9.166;2023-04-01T02:34:28;20.80;84.20
57892;DHT22;43708;48.828;9.166;2023-04-01T02:36:55;20.80;84.20
57892;DHT22;43708;48.828;9.166;2023-04-01T02:39:22;20.80;84.20
57892;DHT22;43708;48.828;9.166;2023-04-01T02:41:48;20.80;84.20
57892;DHT22;43708;48.828;9.166;2023-04-01T02:44:14;20.70;84.10
57892;DHT22;43708;48.828;9.166;2023-04-01T02:46:40;20.70;84.10
57892;DHT22;43708;48.828;9.166;2023-04-01T02:49:06;20.70;84.10
57892;DHT22;43708;48.828;9.166;2023-04-01T02:51:33;20.70;84.10
57892;DHT22;43708;48.828;9.166;2023-04-01T02:53:58;20.70;84.10
57892;DHT22;43708;48.828;9.166;2023-04-01T02:56:24;20.70;84.10
57892;DHT22;43708;48.828;9.166;2023-04-01T02:58:51;20.70;84.10
57892;DHT22;43708;48.828;9.166;2023-04-01T03:01:17;20.70;84.10
57892;DHT22;43708;48.828;9.166;2023-04-01T03:03:42;20.60;84.10
57892;DHT22;43708;48.828;9.166;2023-04-01T03:06:11;20.60;84.10
57892;DHT22;43708;48.828;9.166;2023-04-01T03:08:37;20.60;84.10
57892;DHT22;43708;48.828;9.166;2023-04-01T03:11:03;20.60;84.10
57892;DHT22;43708;48.828;9.166;2023-04-01T03:13:28;20.70;84.10
57892;DHT22;43708;48.828;9.166;2023-04-01T03:15:54;20.70;84.10
57892;DHT22;43708;48.828;9.166;2023-04-01T03:18:20;20.60;84.00
57892;DHT22;43708;48.828;9.166;2023-04-01T03:20:46;20.70;84.00
57892;DHT22;43708;48.828;9.166;2023-04-01T03:23:12;20.70;84.00
57892;DHT22;43708;48.828;9.166;2023-04-01T03:25:37;20.70;84.00
57892;DHT22;43708;48.828;9.166;2023-04-01T03:28:03;20.70;83.90
57892;DHT22;43708;48.828;9.166;2023-04-01T03:30:29;20.70;83.90
57892;DHT22;43708;48.828;9.166;2023-04-01T03:32:57;20.70;83.80
57892;DHT22;43708;48.828;9.166;2023-04-01T03:35:23;20.70;83.80
57892;DHT22;43708;48.828;9.166;2023-04-01T03:37:51;20.70;83.80
57892;DHT22;43708;48.828;9.166;2023-04-01T03:40:17;20.70;83.70
57892;DHT22;43708;48.828;9.166;2023-04-01T03:42:42;20.70;83.70
57892;DHT22;43708;48.828;9.166;2023-04-01T03:45:08;20.70;83.70
57892;DHT22;43708;48.828;9.166;2023-04-01T03:47:34;20.70;83.70
57892;DHT22;43708;48.828;9.166;2023-04-01T03:50:00;20.70;83.70
57892;DHT22;43708;48.828;9.166;2023-04-01T03:52:26;20.70;83.60
57892;DHT22;43708;48.828;9.166;2023-04-01T03:54:52;20.70;83.60
57892;DHT22;43708;48.828;9.166;2023-04-01T03:57:17;20.70;83.60
57892;DHT22;43708;48.828;9.166;2023-04-01T03:59:43;20.70;83.60
57892;DHT22;43708;48.828;9.166;2023-04-01T04:02:08;20.70;83.60
57892;DHT22;43708;48.828;9.166;2023-04-01T04:04:34;20.70;83.60
57892;DHT22;43708;48.828;9.166;2023-04-01T04:07:00;20.70;83.60
57892;DHT22;43708;48.828;9.166;2023-04-01T04:09:25;20.70;83.60
57892;DHT22;43708;48.828;9.166;2023-04-01T04:11:51;20.70;83.60
57892;DHT22;43708;48.828;9.166;2023-04-01T04:14:17;20.70;83.60
57892;DHT22;43708;48.828;9.166;2023-04-01T04:16:42;20.70;83.50
57892;DHT22;43708;48.828;9.166;2023-04-01T04:19:08;20.70;83.50
57892;DHT22;43708;48.828;9.166;2023-04-01T04:21:33;20.70;83.60
57892;DHT22;43708;48.828;9.166;2023-04-01T04:24:02;20.70;83.50
57892;DHT22;43708;48.828;9.166;2023-04-01T04:26:28;20.70;83.50
57892;DHT22;43708;48.828;9.166;2023-04-01T04:28:54;20.70;83.50
57892;DHT22;43708;48.828;9.166;2023-04-01T04:31:21;20.70;83.50
57892;DHT22;43708;48.828;9.166;2023-04-01T04:33:47;20.70;83.50
57892;DHT22;43708;48.828;9.166;2023-04-01T04:36:13;20.70;83.50
57892;DHT22;43708;48.828;9.166;2023-04-01T04:38:39;20.70;83.40
57892;DHT22;43708;48.828;9.166;2023-04-01T04:41:09;20.70;83.50
57892;DHT22;43708;48.828;9.166;2023-04-01T04:43:35;20.70;83.40
57892;DHT22;43708;48.828;9.166;2023-04-01T04:46:07;20.70;83.40
57892;DHT22;43708;48.828;9.166;2023-04-01T04:48:33;20.70;83.50
57892;DHT22;43708;48.828;9.166;2023-04-01T04:50:58;20.60;83.30
57892;DHT22;43708;48.828;9.166;2023-04-01T04:53:24;20.60;83.40
57892;DHT22;43708;48.828;9.166;2023-04-01T04:55:51;20.70;83.50
57892;DHT22;43708;48.828;9.166;2023-04-01T04:58:17;20.60;83.30
57892;DHT22;43708;48.828;9.166;2023-04-01T05:00:43;20.70;83.50
57892;DHT22;43708;48.828;9.166;2023-04-01T05:03:09;20.60;83.30
57892;DHT22;43708;48.828;9.166;2023-04-01T05:05:34;20.60;83.30
57892;DHT22;43708;48.828;9.166;2023-04-01T05:08:00;20.70;83.30
57892;DHT22;43708;48.828;9.166;2023-04-01T05:10:26;20.70;83.30
57892;DHT22;43708;48.828;9.166;2023-04-01T05:12:51;20.70;83.30
57892;DHT22;43708;48.828;9.166;2023-04-01T05:15:17;20.70;83.30
57892;DHT22;43708;48.828;9.166;2023-04-01T05:17:43;20.70;83.30
57892;DHT22;43708;48.828;9.166;2023-04-01T05:20:08;20.70;83.20
57892;DHT22;43708;48.828;9.166;2023-04-01T05:22:35;20.60;83.20
57892;DHT22;43708;48.828;9.166;2023-04-01T05:25:00;20.70;83.20
57892;DHT22;43708;48.828;9.166;2023-04-01T05:27:26;20.70;83.20
57892;DHT22;43708;48.828;9.166;2023-04-01T05:29:51;20.70;83.20
57892;DHT22;43708;48.828;9.166;2023-04-01T05:32:17;20.70;83.10
57892;DHT22;43708;48.828;9.166;2023-04-01T05:34:42;20.70;83.20
57892;DHT22;43708;48.828;9.166;2023-04-01T05:37:08;20.70;83.20
57892;DHT22;43708;48.828;9.166;2023-04-01T05:39:38;20.70;83.10
57892;DHT22;43708;48.828;9.166;2023-04-01T05:42:05;20.70;83.10
57892;DHT22;43708;48.828;9.166;2023-04-01T05:44:31;20.70;83.10
57892;DHT22;43708;48.828;9.166;2023-04-01T05:46:57;20.70;83.10
57892;DHT22;43708;48.828;9.166;2023-04-01T05:49:22;20.70;83.00
57892;DHT22;43708;48.828;9.166;2023-04-01T05:51:48;20.80;83.10
57892;DHT22;43708;48.828;9.166;2023-04-01T05:54:14;20.80;83.00
57892;DHT22;43708;48.828;9.166;2023-04-01T05:56:39;20.80;83.00
57892;DHT22;43708;48.828;9.166;2023-04-01T05:59:05;20.70;82.90
57892;DHT22;43708;48.828;9.166;2023-04-01T06:01:30;20.80;83.00
57892;DHT22;43708;48.828;9.166;2023-04-01T06:03:56;20.80;83.00
57892;DHT22;43708;48.828;9.166;2023-04-01T06:06:27;20.80;83.10
57892;DHT22;43708;48.828;9.166;2023-04-01T06:08:58;20.80;83.10
57892;DHT22;43708;48.828;9.166;2023-04-01T06:26:18;20.80;83.20
57892;DHT22;43708;48.828;9.166;2023-04-01T06:29:24;20.80;83.20
57892;DHT22;43708;48.828;9.166;2023-04-01T06:32:02;20.80;83.20
57892;DHT22;43708;48.828;9.166;2023-04-01T06:54:20;20.80;83.70
57892;DHT22;43708;48.828;9.166;2023-04-01T06:56:51;20.70;83.80
57892;DHT22;43708;48.828;9.166;2023-04-01T06:59:24;20.70;84.30
57892;DHT22;43708;48.828;9.166;2023-04-01T07:02:29;20.70;83.80
57892;DHT22;43708;48.828;9.166;2023-04-01T07:04:48;20.70;83.80
57892;DHT22;43708;48.828;9.166;2023-04-01T07:07:38;20.70;83.80
57892;DHT22;43708;48.828;9.166;2023-04-01T07:10:23;20.80;83.90
57892;DHT22;43708;48.828;9.166;2023-04-01T07:12:54;20.80;83.90
57892;DHT22;43708;48.828;9.166;2023-04-01T07:15:25;20.80;84.60
57892;DHT22;43708;48.828;9.166;2023-04-01T07:18:14;20.80;83.90
57892;DHT22;43708;48.828;9.166;2023-04-01T07:20:42;20.80;83.90
57892;DHT22;43708;48.828;9.166;2023-04-01T07:23:20;20.80;83.90
57892;DHT22;43708;48.828;9.166;2023-04-01T07:25:55;20.80;84.00
57892;DHT22;43708;48.828;9.166;2023-04-01T07:28:21;20.80;84.00
57892;DHT22;43708;48.828;9.166;2023-04-01T07:33:19;20.80;84.10
57892;DHT22;43708;48.828;9.166;2023-04-01T07:39:18;20.80;84.10
57892;DHT22;43708;48.828;9.166;2023-04-01T07:50:12;20.80;84.10
57892;DHT22;43708;48.828;9.166;2023-04-01T07:53:03;20.80;84.00
57892;DHT22;43708;48.828;9.166;2023-04-01T07:55:47;20.80;83.90
57892;DHT22;43708;48.828;9.166;2023-04-01T07:58:38;20.80;83.90
57892;DHT22;43708;48.828;9.166;2023-04-01T08:01:18;20.80;83.90
57892;DHT22;43708;48.828;9.166;2023-04-01T08:06:47;20.70;83.90
57892;DHT22;43708;48.828;9.166;2023-04-01T08:12:04;20.70;83.90
57892;DHT22;43708;48.828;9.166;2023-04-01T08:14:47;20.70;83.90
57892;DHT22;43708;48.828;9.166;2023-04-01T08:17:38;20.70;83.90
57892;DHT22;43708;48.828;9.166;2023-04-01T08:23:07;20.70;83.90
57892;DHT22;43708;48.828;9.166;2023-04-01T08:25:40;20.70;83.90
57892;DHT22;43708;48.828;9.166;2023-04-01T08:28:14;20.70;83.60
57892;DHT22;43708;48.828;9.166;2023-04-01T08:33:33;20.60;83.60
57892;DHT22;43708;48.828;9.166;2023-04-01T08:36:05;20.60;83.50
57892;DHT22;43708;48.828;9.166;2023-04-01T08:38:40;20.60;83.50
57892;DHT22;43708;48.828;9.166;2023-04-01T08:52:40;20.60;83.00
57892;DHT22;43708;48.828;9.166;2023-04-01T08:57:53;20.60;83.10
57892;DHT22;43708;48.828;9.166;2023-04-01T09:00:53;20.60;83.10
57892;DHT22;43708;48.828;9.166;2023-04-01T09:03:35;20.60;83.20
57892;DHT22;43708;48.828;9.166;2023-04-01T09:14:47;20.50;82.90
57892;DHT22;43708;48.828;9.166;2023-04-01T09:17:42;20.40;82.60
57892;DHT22;43708;48.828;9.166;2023-04-01T09:20:39;20.20;82.30
57892;DHT22;43708;48.828;9.166;2023-04-01T09:28:54;19.50;82.50
57892;DHT22;43708;48.828;9.166;2023-04-01T09:31:46;19.50;82.50
57892;DHT22;43708;48.828;9.166;2023-04-01T09:42:48;19.90;82.40
57892;DHT22;43708;48.828;9.166;2023-04-01T09:45:53;20.00;82.10
57892;DHT22;43708;48.828;9.166;2023-04-01T10:09:01;20.20;81.90
57892;DHT22;43708;48.828;9.166;2023-04-01T10:11:59;20.20;81.90
57892;DHT22;43708;48.828;9.166;2023-04-01T10:33:45;20.20;81.60
57892;DHT22;43708;48.828;9.166;2023-04-01T10:45:05;20.10;81.70
57892;DHT22;43708;48.828;9.166;2023-04-01T10:56:26;20.10;81.40
57892;DHT22;43708;48.828;9.166;2023-04-01T11:07:55;20.10;81.30
57892;DHT22;43708;48.828;9.166;2023-04-01T11:22:18;20.10;81.30
57892;DHT22;43708;48.828;9.166;2023-04-01T11:25:09;20.10;81.40
57892;DHT22;43708;48.828;9.166;2023-04-01T11:30:49;20.10;81.40
57892;DHT22;43708;48.828;9.166;2023-04-01T11:39:37;20.10;81.40
57892;DHT22;43708;48.828;9.166;2023-04-01T11:52:55;20.10;81.50
57892;DHT22;43708;48.828;9.166;2023-04-01T11:58:55;20.00;81.40
57892;DHT22;43708;48.828;9.166;2023-04-01T12:01:36;20.00;81.40
57892;DHT22;43708;48.828;9.166;2023-04-01T12:12:41;20.00;81.50
57892;DHT22;43708;48.828;9.166;2023-04-01T12:32:56;20.00;81.40
57892;DHT22;43708;48.828;9.166;2023-04-01T12:53:47;20.00;81.10
57892;DHT22;43708;48.828;9.166;2023-04-01T12:56:49;20.00;81.00
57892;DHT22;43708;48.828;9.166;2023-04-01T13:10:15;20.00;81.10
57892;DHT22;43708;48.828;9.166;2023-04-01T13:27:21;20.00;80.90
57892;DHT22;43708;48.828;9.166;2023-04-01T13:32:47;20.00;80.80
57892;DHT22;43708;48.828;9.166;2023-04-01T13:35:36;20.00;80.80
57892;DHT22;43708;48.828;9.166;2023-04-01T13:38:56;20.00;80.80
57892;DHT22;43708;48.828;9.166;2023-04-01T13:43:51;20.00;80.80
57892;DHT22;43708;48.828;9.166;2023-04-01T13:55:23;19.90;80.40
57892;DHT22;43708;48.828;9.166;2023-04-01T13:58:15;19.90;80.40
57892;DHT22;43708;48.828;9.166;2023-04-01T14:06:27;19.90;80.50
57892;DHT22;43708;48.828;9.166;2023-04-01T14:09:11;19.90;80.50
57892;DHT22;43708;48.828;9.166;2023-04-01T14:17:42;19.90;80.50
57892;DHT22;43708;48.828;9.166;2023-04-01T14:28:44;19.90;80.60
57892;DHT22;43708;48.828;9.166;2023-04-01T14:42:28;20.00;80.80
57892;DHT22;43708;48.828;9.166;2023-04-01T14:47:56;20.00;80.70
57892;DHT22;43708;48.828;9.166;2023-04-01T14:50:26;20.10;80.80
57892;DHT22;43708;48.828;9.166;2023-04-01T15:06:31;20.40;81.10
57892;DHT22;43708;48.828;9.166;2023-04-01T15:28:22;20.50;81.60
57892;DHT22;43708;48.828;9.166;2023-04-01T15:42:03;20.70;81.40
57892;DHT22;43708;48.828;9.166;2023-04-01T15:49:56;21.20;80.60
57892;DHT22;43708;48.828;9.166;2023-04-01T16:00:53;22.10;78.50
57892;DHT22;43708;48.828;9.166;2023-04-01T16:03:40;22.30;77.90
57892;DHT22;43708;48.828;9.166;2023-04-01T16:08:54;22.60;77.70
57892;DHT22;43708;48.828;9.166;2023-04-01T16:20:20;23.10;77.60
57892;DHT22;43708;48.828;9.166;2023-04-01T16:23:02;23.20;77.60
57892;DHT22;43708;48.828;9.166;2023-04-01T16:25:52;23.20;77.80
57892;DHT22;43708;48.828;9.166;2023-04-01T16:28:29;23.20;78.10
57892;DHT22;43708;48.828;9.166;2023-04-01T16:34:08;23.10;78.50
57892;DHT22;43708;48.828;9.166;2023-04-01T16:36:48;22.80;78.50
57892;DHT22;43708;48.828;9.166;2023-04-01T16:39:50;22.40;78.90
57892;DHT22;43708;48.828;9.166;2023-04-01T16:42:43;22.30;79.00
57892;DHT22;43708;48.828;9.166;2023-04-01T16:45:28;22.20;79.10
57892;DHT22;43708;48.828;9.166;2023-04-01T16:48:01;22.20;79.30
57892;DHT22;43708;48.828;9.166;2023-04-01T16:50:44;22.20;79.30
57892;DHT22;43708;48.828;9.166;2023-04-01T16:58:33;22.20;78.90
57892;DHT22;43708;48.828;9.166;2023-04-01T17:01:07;22.30;78.50
57892;DHT22;43708;48.828;9.166;2023-04-01T17:03:46;22.40;78.30
57892;DHT22;43708;48.828;9.166;2023-04-01T17:12:25;22.80;77.60
57892;DHT22;43708;48.828;9.166;2023-04-01T17:17:37;22.90;77.20
57892;DHT22;43708;48.828;9.166;2023-04-01T17:34:52;23.20;77.00
57892;DHT22;43708;48.828;9.166;2023-04-01T17:37:34;23.20;77.00
57892;DHT22;43708;48.828;9.166;2023-04-01T17:43:14;23.10;77.50
57892;DHT22;43708;48.828;9.166;2023-04-01T17:46:02;23.10;77.70
57892;DHT22;43708;48.828;9.166;2023-04-01T17:48:38;23.00;77.80
57892;DHT22;43708;48.828;9.166;2023-04-01T17:59:24;23.20;77.70
57892;DHT22;43708;48.828;9.166;2023-04-01T18:04:58;23.30;77.60
57892;DHT22;43708;48.828;9.166;2023-04-01T18:16:14;23.50;77.20
57892;DHT22;43708;48.828;9.166;2023-04-01T18:18:56;23.50;77.20
57892;DHT22;43708;48.828;9.166;2023-04-01T18:25:34;23.50;77.00
57892;DHT22;43708;48.828;9.166;2023-04-01T18:28:17;23.20;76.90
57892;DHT22;43708;48.828;9.166;2023-04-01T18:30:58;23.10;76.80
57892;DHT22;43708;48.828;9.166;2023-04-01T18:33:31;23.10;76.80
57892;DHT22;43708;48.828;9.166;2023-04-01T18:39:12;23.10;76.40
57892;DHT22;43708;48.828;9.166;2023-04-01T18:41:51;23.20;76.20
57892;DHT22;43708;48.828;9.166;2023-04-01T18:47:23;23.20;75.70
57892;DHT22;43708;48.828;9.166;2023-04-01T18:52:47;23.20;75.30
57892;DHT22;43708;48.828;9.166;2023-04-01T18:57:54;23.10;75.20
57892;DHT22;43708;48.828;9.166;2023-04-01T19:00:43;23.10;75.90
57892;DHT22;43708;48.828;9.166;2023-04-01T19:03:25;23.00;75.10
57892;DHT22;43708;48.828;9.166;2023-04-01T19:05:53;23.00;75.10
57892;DHT22;43708;48.828;9.166;2023-04-01T19:08:32;22.90;75.00
57892;DHT22;43708;48.828;9.166;2023-04-01T19:27:02;22.70;75.40
57892;DHT22;43708;48.828;9.166;2023-04-01T19:32:58;22.70;75.40
57892;DHT22;43708;48.828;9.166;2023-04-01T19:35:47;22.70;75.50
57892;DHT22;43708;48.828;9.166;2023-04-01T19:38:28;22.60;75.60
57892;DHT22;43708;48.828;9.166;2023-04-01T19:41:02;22.60;75.70
57892;DHT22;43708;48.828;9.166;2023-04-01T19:46:26;22.50;75.90
57892;DHT22;43708;48.828;9.166;2023-04-01T19:54:29;22.40;75.90
57892;DHT22;43708;48.828;9.166;2023-04-01T20:07:59;22.50;75.60
57892;DHT22;43708;48.828;9.166;2023-04-01T20:10:30;22.50;75.50
57892;DHT22;43708;48.828;9.166;2023-04-01T20:13:06;22.50;75.50
57892;DHT22;43708;48.828;9.166;2023-04-01T20:15:44;22.60;75.50
57892;DHT22;43708;48.828;9.166;2023-04-01T20:21:03;22.60;75.50
57892;DHT22;43708;48.828;9.166;2023-04-01T20:24:01;22.60;75.60
57892;DHT22;43708;48.828;9.166;2023-04-01T20:26:36;22.60;75.60
57892;DHT22;43708;48.828;9.166;2023-04-01T20:32:06;22.50;75.70
57892;DHT22;43708;48.828;9.166;2023-04-01T20:37:39;22.50;75.80
57892;DHT22;43708;48.828;9.166;2023-04-01T20:40:21;22.50;75.90
57892;DHT22;43708;48.828;9.166;2023-04-01T20:48:42;22.50;76.00
57892;DHT22;43708;48.828;9.166;2023-04-01T20:51:15;22.40;76.00
57892;DHT22;43708;48.828;9.166;2023-04-01T20:56:17;22.40;76.10
57892;DHT22;43708;48.828;9.166;2023-04-01T20:58:54;22.40;76.20
57892;DHT22;43708;48.828;9.166;2023-04-01T21:01:47;22.40;76.30
57892;DHT22;43708;48.828;9.166;2023-04-01T21:04:26;22.40;76.30
57892;DHT22;43708;48.828;9.166;2023-04-01T21:10:07;22.40;76.40
57892;DHT22;43708;48.828;9.166;2023-04-01T21:12:48;22.40;76.50
57892;DHT22;43708;48.828;9.166;2023-04-01T21:16:19;22.30;76.50
57892;DHT22;43708;48.828;9.166;2023-04-01T21:40:02;22.20;76.90
57892;DHT22;43708;48.828;9.166;2023-04-01T21:51:30;22.20;77.10
57892;DHT22;43708;48.828;9.166;2023-04-01T22:05:28;22.10;77.30
57892;DHT22;43708;48.828;9.166;2023-04-01T22:13:53;22.10;77.40
57892;DHT22;43708;48.828;9.166;2023-04-01T22:16:40;22.00;77.40
57892;DHT22;43708;48.828;9.166;2023-04-01T22:19:17;22.00;77.40
57892;DHT22;43708;48.828;9.166;2023-04-01T22:27:04;22.00;77.50
57892;DHT22;43708;48.828;9.166;2023-04-01T22:29:38;22.00;77.60
57892;DHT22;43708;48.828;9.166;2023-04-01T22:32:15;21.90;77.60
57892;DHT22;43708;48.828;9.166;2023-04-01T22:38:01;22.00;77.70
57892;DHT22;43708;48.828;9.166;2023-04-01T22:40:52;21.90;77.70
57892;DHT22;43708;48.828;9.166;2023-04-01T22:54:43;21.90;77.80
57892;DHT22;43708;48.828;9.166;2023-04-01T23:02:35;21.90;78.70
57892;DHT22;43708;48.828;9.166;2023-04-01T23:05:05;21.80;77.90
57892;DHT22;43708;48.828;9.166;2023-04-01T23:10:54;21.80;77.90
57892;DHT22;43708;48.828;9.166;2023-04-01T23:13:29;21.80;78.00
57892;DHT22;43708;48.828;9.166;2023-04-01T23:15:57;21.80;78.00
57892;DHT22;43708;48.828;9.166;2023-04-01T23:21:15;21.80;78.10
57892;DHT22;43708;48.828;9.166;2023-04-01T23:29:14;21.80;78.20
57892;DHT22;43708;48.828;9.166;2023-04-01T23:31:45;21.80;78.20
57892;DHT22;43708;48.828;9.166;2023-04-01T23:36:40;21.70;78.20
57892;DHT22;43708;48.828;9.166;2023-04-01T23:41:40;21.60;78.30
57892;DHT22;43708;48.828;9.166;2023-04-01T23:44:10;21.60;78.30
57892;DHT22;43708;48.828;9.166;2023-04-01T23:46:37;21.60;78.30
57892;DHT22;43708;48.828;9.166;2023-04-01T23:49:10;21.60;78.40
57892;DHT22;43708;48.828;9.166;2023-04-01T23:51:39;21.60;78.40
57892;DHT22;43708;48.828;9.166;2023-04-01T23:54:23;21.60;78.40
57892;DHT22;43708;48.828;9.166;2023-04-01T23:56:55;21.50;78.30
57892;DHT22;43708;48.828;9.166;2023-04-01T23:59:28;21.50;78.30
